HornbrookRWIS Atmospheric Data: 03/22/2019 Summary  Detailed Graphs  Station List

  Temperature     Wind Precipitation Visibility
Timestamp Air Wet
Bulb
Dew-
point
24-hr
Max
24-hr
Min
Relative
Humidity
Atmospheric
Pressure
Avg
Speed
Avg
Dir
Spot
Speed
Spot
Dir
Max
Speed
Max
Dir
  Rate Situation Start End 1 hr 3 hr 6 hr 12 hr 24 hr   Situation
Date Time °F °F °F °F °F % in Hg mph ° mph ° mph ° Y/N in/hr text Date Time Date Time in in in in in mi text
03/22/2019 12:12 AM 43.88 39.38 33.44 61.88 29.84 66.0 Not Reported 0.00 SW 0.00 W 0.00 SW No 0.000 No Precipitation 03/12/2019 07:57 AM 03/12/2019 08:02 AM 0.000 0.000 0.000 0.000 0.000 Not Reported Not Reported
03/22/2019 12:27 AM 42.98 38.84 33.44 61.88 29.84 68.0 Not Reported 0.00 S 0.67 S 0.00 W No 0.000 No Precipitation 03/12/2019 07:57 AM 03/12/2019 08:02 AM 0.000 0.000 0.000 0.000 0.000 Not Reported Not Reported
03/22/2019 12:42 AM 42.62 38.48 33.44 61.88 29.84 69.0 Not Reported 0.89 W 1.57 W 1.34 W No 0.000 No Precipitation 03/12/2019 07:57 AM 03/12/2019 08:02 AM 0.000 0.000 0.000 0.000 0.000 Not Reported Not Reported
03/22/2019 12:57 AM 42.08 37.94 32.36 61.88 29.84 69.0 Not Reported 2.24 W 2.24 W 2.01 NW No 0.000 No Precipitation 03/12/2019 07:57 AM 03/12/2019 08:02 AM 0.000 0.000 0.000 0.000 0.000 Not Reported Not Reported
03/22/2019 01:13 AM 42.08 37.94 32.54 61.88 29.84 68.0 Not Reported 1.12 W 1.34 W 2.01 W No 0.000 No Precipitation 03/12/2019 07:57 AM 03/12/2019 08:02 AM 0.000 0.000 0.000 0.000 0.000 Not Reported Not Reported
03/22/2019 01:27 AM 40.82 37.04 32.18 61.88 29.84 69.0 Not Reported 1.12 SW 1.79 NE 3.80 W No 0.000 No Precipitation 03/12/2019 07:57 AM 03/12/2019 08:02 AM 0.000 0.000 0.000 0.000 0.000 Not Reported Not Reported
03/22/2019 01:42 AM 40.10 36.86 32.18 61.88 29.84 73.0 Not Reported 3.13 W 2.91 W 3.58 SW No 0.000 No Precipitation 03/12/2019 07:57 AM 03/12/2019 08:02 AM 0.000 0.000 0.000 0.000 0.000 Not Reported Not Reported
03/22/2019 01:57 AM 40.10 36.86 32.36 61.88 29.84 73.0 Not Reported 1.79 S 0.00 SW 3.80 W No 0.000 No Precipitation 03/12/2019 07:57 AM 03/12/2019 08:02 AM 0.000 0.000 0.000 0.000 0.000 Not Reported Not Reported
03/22/2019 02:12 AM 39.56 36.50 32.18 61.88 29.84 74.0 Not Reported 0.22 N 0.45 N 2.01 W No 0.000 No Precipitation 03/12/2019 07:57 AM 03/12/2019 08:02 AM 0.000 0.000 0.000 0.000 0.000 Not Reported Not Reported
03/22/2019 02:27 AM 38.84 35.96 32.00 61.88 29.84 75.0 Not Reported 0.45 NW 0.89 SW 1.34 NE No 0.000 No Precipitation 03/12/2019 07:57 AM 03/12/2019 08:02 AM 0.000 0.000 0.000 0.000 0.000 Not Reported Not Reported
03/22/2019 02:43 AM 38.84 36.14 32.36 61.88 29.84 77.0 Not Reported 1.12 W 1.12 W 1.12 W No 0.000 No Precipitation 03/12/2019 07:57 AM 03/12/2019 08:02 AM 0.000 0.000 0.000 0.000 0.000 Not Reported Not Reported
03/22/2019 02:58 AM 37.94 35.24 31.82 61.88 29.84 77.0 Not Reported 0.00 N 0.67 N 1.34 W No 0.000 No Precipitation 03/12/2019 07:57 AM 03/12/2019 08:02 AM 0.000 0.000 0.000 0.000 0.000 Not Reported Not Reported
03/22/2019 03:12 AM 38.12 35.60 32.00 61.88 29.84 78.0 Not Reported 0.00 N 0.00 NW 0.67 NW No 0.000 No Precipitation 03/12/2019 07:57 AM 03/12/2019 08:02 AM 0.000 0.000 0.000 0.000 0.000 Not Reported Not Reported
03/22/2019 03:27 AM 38.30 35.78 32.36 61.88 29.84 79.0 Not Reported 0.22 W 0.00 SW 1.12 SW No 0.000 No Precipitation 03/12/2019 07:57 AM 03/12/2019 08:02 AM 0.000 0.000 0.000 0.000 0.000 Not Reported Not Reported
03/22/2019 03:42 AM 36.86 34.70 32.00 61.88 29.84 82.0 Not Reported 1.12 SW 0.89 SW 2.01 E No 0.000 No Precipitation 03/12/2019 07:57 AM 03/12/2019 08:02 AM 0.000 0.000 0.000 0.000 0.000 Not Reported Not Reported
03/22/2019 03:57 AM 37.40 35.06 32.00 61.88 29.84 80.0 Not Reported 1.57 NW 0.00 NW 2.24 W No 0.000 No Precipitation 03/12/2019 07:57 AM 03/12/2019 08:02 AM 0.000 0.000 0.000 0.000 0.000 Not Reported Not Reported
03/22/2019 04:13 AM 34.16 32.36 29.66 61.88 29.84 83.0 Not Reported 2.46 NE 1.57 NE 3.36 SE No 0.000 No Precipitation 03/12/2019 07:57 AM 03/12/2019 08:02 AM 0.000 0.000 0.000 0.000 0.000 Not Reported Not Reported
03/22/2019 04:27 AM 34.70 33.08 30.92 61.88 29.84 86.0 Not Reported 0.67 SW 0.00 W 2.24 NE No 0.000 No Precipitation 03/12/2019 07:57 AM 03/12/2019 08:02 AM 0.000 0.000 0.000 0.000 0.000 Not Reported Not Reported
03/22/2019 04:42 AM 35.96 34.16 31.82 61.88 29.84 83.0 Not Reported 3.58 W 2.46 SW 4.03 W No 0.000 No Precipitation 03/12/2019 07:57 AM 03/12/2019 08:02 AM 0.000 0.000 0.000 0.000 0.000 Not Reported Not Reported
03/22/2019 04:57 AM 34.52 32.90 30.92 61.88 29.84 85.0 Not Reported 0.89 S 0.89 S 3.13 SW No 0.000 No Precipitation 03/12/2019 07:57 AM 03/12/2019 08:02 AM 0.000 0.000 0.000 0.000 0.000 Not Reported Not Reported
03/22/2019 05:12 AM 34.34 32.90 30.92 61.88 29.84 85.0 Not Reported 0.89 NW 1.79 W 1.79 NW No 0.000 No Precipitation 03/12/2019 07:57 AM 03/12/2019 08:02 AM 0.000 0.000 0.000 0.000 0.000 Not Reported Not Reported
03/22/2019 05:27 AM 34.16 32.54 30.38 61.88 29.84 85.0 Not Reported 0.89 N 0.00 N 2.91 W No 0.000 No Precipitation 03/12/2019 07:57 AM 03/12/2019 08:02 AM 0.000 0.000 0.000 0.000 0.000 Not Reported Not Reported
03/22/2019 05:42 AM 33.80 32.54 30.56 61.88 29.84 86.0 Not Reported 0.00 N 0.00 S 0.67 W No 0.000 No Precipitation 03/12/2019 07:57 AM 03/12/2019 08:02 AM 0.000 0.000 0.000 0.000 0.000 Not Reported Not Reported
03/22/2019 05:57 AM 34.16 32.72 30.92 61.88 29.84 87.0 Not Reported 1.34 NW 0.67 NW 0.89 SE No 0.000 No Precipitation 03/12/2019 07:57 AM 03/12/2019 08:02 AM 0.000 0.000 0.000 0.000 0.000 Not Reported Not Reported
03/22/2019 06:12 AM 33.44 32.18 30.38 61.88 29.84 87.0 Not Reported 0.45 SW 0.00 SW 1.12 NE No 0.000 No Precipitation 03/12/2019 07:57 AM 03/12/2019 08:02 AM 0.000 0.000 0.000 0.000 0.000 Not Reported Not Reported
03/22/2019 06:27 AM 32.72 31.64 29.66 61.88 29.84 87.0 Not Reported 0.89 E 1.12 SE 0.67 W No 0.000 No Precipitation 03/12/2019 07:57 AM 03/12/2019 08:02 AM 0.000 0.000 0.000 0.000 0.000 Not Reported Not Reported
03/22/2019 06:42 AM 33.08 32.00 30.38 61.88 29.84 89.0 Not Reported 2.01 SW 1.79 SW 2.24 W No 0.000 No Precipitation 03/12/2019 07:57 AM 03/12/2019 08:02 AM 0.000 0.000 0.000 0.000 0.000 Not Reported Not Reported
03/22/2019 06:57 AM 32.36 31.10 28.76 61.88 29.84 85.0 Not Reported 0.45 SW 0.89 E 4.92 W No 0.000 No Precipitation 03/12/2019 07:57 AM 03/12/2019 08:02 AM 0.000 0.000 0.000 0.000 0.000 Not Reported Not Reported
03/22/2019 07:12 AM 31.46 30.38 28.76 61.88 29.84 89.0 Not Reported 2.91 N 1.79 NW 3.58 N No 0.000 No Precipitation 03/12/2019 07:57 AM 03/12/2019 08:02 AM 0.000 0.000 0.000 0.000 0.000 Not Reported Not Reported
03/22/2019 07:27 AM 33.26 32.18 30.74 61.88 29.84 89.0 Not Reported 1.79 NW 2.91 NW 3.36 N No 0.000 No Precipitation 03/12/2019 07:57 AM 03/12/2019 08:02 AM 0.000 0.000 0.000 0.000 0.000 Not Reported Not Reported
03/22/2019 07:42 AM 34.70 33.26 31.46 61.88 29.84 86.0 Not Reported 2.91 W 3.13 NW 4.47 NW No 0.000 No Precipitation 03/12/2019 07:57 AM 03/12/2019 08:02 AM 0.000 0.000 0.000 0.000 0.000 Not Reported Not Reported
03/22/2019 07:57 AM 35.24 33.62 31.46 61.88 29.84 85.0 Not Reported 3.36 W 4.03 NW 4.92 NW No 0.000 No Precipitation 03/12/2019 07:57 AM 03/12/2019 08:02 AM 0.000 0.000 0.000 0.000 0.000 Not Reported Not Reported
03/22/2019 08:12 AM 35.60 33.80 31.46 61.88 29.84 83.0 Not Reported 0.89 NW 0.22 NW 3.13 W No 0.000 No Precipitation 03/12/2019 07:57 AM 03/12/2019 08:02 AM 0.000 0.000 0.000 0.000 0.000 Not Reported Not Reported
03/22/2019 08:27 AM 33.80 32.54 30.56 61.88 29.84 87.0 Not Reported 0.00 SE 0.89 S 2.46 SE No 0.000 No Precipitation 03/12/2019 07:57 AM 03/12/2019 08:02 AM 0.000 0.000 0.000 0.000 0.000 Not Reported Not Reported
03/22/2019 08:42 AM 34.16 32.90 31.28 61.88 29.84 88.0 Not Reported 1.57 S 0.00 S 2.01 S No 0.000 No Precipitation 03/12/2019 07:57 AM 03/12/2019 08:02 AM 0.000 0.000 0.000 0.000 0.000 Not Reported Not Reported
03/22/2019 08:57 AM 35.42 33.98 32.00 61.88 29.84 86.0 Not Reported 1.34 SW 0.89 SW 1.79 SW No 0.000 No Precipitation 03/12/2019 07:57 AM 03/12/2019 08:02 AM 0.000 0.000 0.000 0.000 0.000 Not Reported Not Reported
03/22/2019 09:12 AM 35.24 33.80 31.82 61.88 29.84 86.0 Not Reported 1.57 E 1.34 E 2.91 W No 0.000 No Precipitation 03/12/2019 07:57 AM 03/12/2019 08:02 AM 0.000 0.000 0.000 0.000 0.000 Not Reported Not Reported
03/22/2019 09:27 AM 34.70 33.44 31.82 61.88 29.84 88.0 Not Reported 0.45 SE 0.67 SE 1.57 E No 0.000 No Precipitation 03/12/2019 07:57 AM 03/12/2019 08:02 AM 0.000 0.000 0.000 0.000 0.000 Not Reported Not Reported
03/22/2019 09:43 AM 36.50 35.06 33.08 61.88 29.84 87.0 Not Reported 1.12 NW 0.67 SE 2.01 N No 0.000 No Precipitation 03/12/2019 07:57 AM 03/12/2019 08:02 AM 0.000 0.000 0.000 0.000 0.000 Not Reported Not Reported
03/22/2019 09:57 AM 38.12 36.14 33.26 61.88 29.84 82.0 Not Reported 3.36 NW 1.57 N 4.03 NW No 0.000 No Precipitation 03/12/2019 07:57 AM 03/12/2019 08:02 AM 0.000 0.000 0.000 0.000 0.000 Not Reported Not Reported
03/22/2019 10:12 AM 38.84 36.86 33.98 61.88 29.84 82.0 Not Reported 0.45 E 0.00 E 1.12 SE No 0.000 No Precipitation 03/12/2019 07:57 AM 03/12/2019 08:02 AM 0.000 0.000 0.000 0.000 0.000 Not Reported Not Reported
03/22/2019 10:27 AM 39.74 37.22 33.98 61.88 29.84 79.0 Not Reported 0.67 NW 0.22 N 1.34 E No 0.000 No Precipitation 03/12/2019 07:57 AM 03/12/2019 08:02 AM 0.000 0.000 0.000 0.000 0.000 Not Reported Not Reported
03/22/2019 10:42 AM 41.00 37.76 33.62 61.88 29.84 74.0 Not Reported 0.89 SW 0.00 NW 2.46 SW No 0.000 No Precipitation 03/12/2019 07:57 AM 03/12/2019 08:02 AM 0.000 0.000 0.000 0.000 0.000 Not Reported Not Reported
03/22/2019 10:57 AM 40.82 38.48 35.42 61.88 29.84 80.0 Not Reported 1.34 NE 2.01 NE 2.24 E No 0.000 No Precipitation 03/12/2019 07:57 AM 03/12/2019 08:02 AM 0.000 0.000 0.000 0.000 0.000 Not Reported Not Reported
03/22/2019 11:12 AM 42.08 38.66 34.34 61.88 29.84 73.0 Not Reported 0.67 NE 2.24 N 2.68 N No 0.000 No Precipitation 03/12/2019 07:57 AM 03/12/2019 08:02 AM 0.000 0.000 0.000 0.000 0.000 Not Reported Not Reported
03/22/2019 11:27 AM 43.70 40.10 35.42 61.88 29.84 72.0 Not Reported 2.46 NW 2.68 NW 3.13 N No 0.000 No Precipitation 03/12/2019 07:57 AM 03/12/2019 08:02 AM 0.000 0.000 0.000 0.000 0.000 Not Reported Not Reported
03/22/2019 11:42 AM 45.14 40.82 35.96 61.88 29.84 70.0 Not Reported 2.01 NE 1.57 NE 2.46 NW No 0.000 No Precipitation 03/12/2019 07:57 AM 03/12/2019 08:02 AM 0.000 0.000 0.000 0.000 0.000 Not Reported Not Reported
03/22/2019 11:57 AM 45.68 41.54 36.68 61.88 29.84 71.0 Not Reported 1.57 SE 0.89 S 2.24 NE No 0.000 No Precipitation 03/12/2019 07:57 AM 03/12/2019 08:02 AM 0.000 0.000 0.000 0.000 0.000 Not Reported Not Reported
03/22/2019 12:12 PM 47.12 42.08 36.14 61.88 29.84 65.0 Not Reported 0.89 SE 1.79 E 1.12 SE No 0.000 No Precipitation 03/12/2019 07:57 AM 03/12/2019 08:02 AM 0.000 0.000 0.000 0.000 0.000 Not Reported Not Reported
03/22/2019 12:27 PM 48.20 43.16 37.22 61.88 29.84 65.0 Not Reported 0.22 E 2.24 E 2.46 E No 0.000 No Precipitation 03/12/2019 07:57 AM 03/12/2019 08:02 AM 0.000 0.000 0.000 0.000 0.000 Not Reported Not Reported
03/22/2019 12:42 PM 50.72 44.06 36.32 61.88 29.84 57.0 Not Reported 2.68 E 4.25 NE 3.80 E No 0.000 No Precipitation 03/12/2019 07:57 AM 03/12/2019 08:02 AM 0.000 0.000 0.000 0.000 0.000 Not Reported Not Reported
03/22/2019 12:57 PM 52.88 44.96 35.60 61.88 29.84 52.0 Not Reported 11.86 S 12.53 S 9.17 SE No 0.000 No Precipitation 03/12/2019 07:57 AM 03/12/2019 08:02 AM 0.000 0.000 0.000 0.000 0.000 Not Reported Not Reported
03/22/2019 01:12 PM 52.52 44.42 34.88 61.88 29.84 51.0 Not Reported 10.51 S 11.86 S 13.20 S No 0.000 No Precipitation 03/12/2019 07:57 AM 03/12/2019 08:02 AM 0.000 0.000 0.000 0.000 0.000 Not Reported Not Reported
03/22/2019 01:27 PM 53.42 44.78 34.70 61.88 29.84 48.0 Not Reported 6.71 S 6.71 SW 13.87 S No 0.000 No Precipitation 03/12/2019 07:57 AM 03/12/2019 08:02 AM 0.000 0.000 0.000 0.000 0.000 Not Reported Not Reported
03/22/2019 01:42 PM 54.86 45.68 35.96 61.88 29.84 48.0 Not Reported 8.50 S 7.38 SE 10.51 SE No 0.000 No Precipitation 03/12/2019 07:57 AM 03/12/2019 08:02 AM 0.000 0.000 0.000 0.000 0.000 Not Reported Not Reported
03/22/2019 01:58 PM 53.60 44.96 34.88 61.88 29.84 48.0 Not Reported 9.84 S 9.62 SE 11.63 S No 0.000 No Precipitation 03/12/2019 07:57 AM 03/12/2019 08:02 AM 0.000 0.000 0.000 0.000 0.000 Not Reported Not Reported
03/22/2019 02:12 PM 53.96 44.78 35.06 61.88 29.84 46.0 Not Reported 7.38 S 13.20 S 13.87 S No 0.000 No Precipitation 03/12/2019 07:57 AM 03/12/2019 08:02 AM 0.000 0.000 0.000 0.000 0.000 Not Reported Not Reported
03/22/2019 02:27 PM 52.88 44.06 34.16 61.88 29.84 47.0 Not Reported 10.07 S 7.61 S 15.43 S No 0.000 No Precipitation 03/12/2019 07:57 AM 03/12/2019 08:02 AM 0.000 0.000 0.000 0.000 0.000 Not Reported Not Reported
03/22/2019 02:42 PM 53.24 44.24 33.98 61.88 29.84 47.0 Not Reported 8.05 SE 10.96 SE 10.07 S No 0.000 No Precipitation 03/12/2019 07:57 AM 03/12/2019 08:02 AM 0.000 0.000 0.000 0.000 0.000 Not Reported Not Reported
03/22/2019 02:57 PM 52.52 44.24 33.80 61.88 29.84 50.0 Not Reported 12.53 S 11.86 S 15.88 S No 0.000 No Precipitation 03/12/2019 07:57 AM 03/12/2019 08:02 AM 0.000 0.000 0.000 0.000 0.000 Not Reported Not Reported
03/22/2019 03:12 PM 52.16 44.06 35.06 61.88 29.84 51.0 Not Reported 11.18 S 9.40 S 13.87 S No 0.000 No Precipitation 03/12/2019 07:57 AM 03/12/2019 08:02 AM 0.000 0.000 0.000 0.000 0.000 Not Reported Not Reported
03/22/2019 03:27 PM 52.16 44.06 34.70 61.88 29.84 50.0 Not Reported 7.61 S 10.96 SE 12.53 S No 0.000 No Precipitation 03/12/2019 07:57 AM 03/12/2019 08:02 AM 0.000 0.000 0.000 0.000 0.000 Not Reported Not Reported
03/22/2019 03:42 PM 52.52 44.42 34.70 61.88 29.84 51.0 Not Reported 7.16 S 5.59 S 12.53 S No 0.000 No Precipitation 03/12/2019 07:57 AM 03/12/2019 08:02 AM 0.000 0.000 0.000 0.000 0.000 Not Reported Not Reported
03/22/2019 03:57 PM 52.16 43.88 34.16 61.88 29.84 50.0 Not Reported 4.47 SW 8.50 S 13.65 S No 0.000 No Precipitation 03/12/2019 07:57 AM 03/12/2019 08:02 AM 0.000 0.000 0.000 0.000 0.000 Not Reported Not Reported
03/22/2019 04:12 PM 51.98 43.52 32.90 61.88 29.84 48.0 Not Reported 4.25 S 4.03 SW 8.72 S No 0.000 No Precipitation 03/12/2019 07:57 AM 03/12/2019 08:02 AM 0.000 0.000 0.000 0.000 0.000 Not Reported Not Reported
03/22/2019 04:27 PM 52.16 43.34 33.80 61.88 29.84 47.0 Not Reported 7.38 S 4.70 S 10.07 S No 0.000 No Precipitation 03/12/2019 07:57 AM 03/12/2019 08:02 AM 0.000 0.000 0.000 0.000 0.000 Not Reported Not Reported
03/22/2019 04:42 PM 50.90 43.88 35.96 61.88 29.84 56.0 Not Reported 11.63 S 14.54 S 13.87 S No 0.000 No Precipitation 03/12/2019 07:57 AM 03/12/2019 08:02 AM 0.000 0.000 0.000 0.000 0.000 Not Reported Not Reported
03/22/2019 04:58 PM 50.90 43.70 35.42 61.88 29.84 55.0 Not Reported 10.07 S 8.72 S 14.54 S No 0.000 No Precipitation 03/12/2019 07:57 AM 03/12/2019 08:02 AM 0.000 0.000 0.000 0.000 0.000 Not Reported Not Reported
03/22/2019 05:12 PM 50.54 43.70 35.42 61.88 29.84 56.0 Not Reported 4.03 SW 6.49 S 12.08 S No 0.000 No Precipitation 03/12/2019 07:57 AM 03/12/2019 08:02 AM 0.000 0.000 0.000 0.000 0.000 Not Reported Not Reported
03/22/2019 05:27 PM 49.82 43.16 35.24 61.88 29.84 57.0 Not Reported 5.82 SE 4.25 SE 12.30 S No 0.000 No Precipitation 03/12/2019 07:57 AM 03/12/2019 08:02 AM 0.000 0.000 0.000 0.000 0.000 Not Reported Not Reported
03/22/2019 05:42 PM 50.72 43.88 36.50 61.88 29.84 57.0 Not Reported 4.70 S 5.59 S 6.04 S No 0.000 No Precipitation 03/12/2019 07:57 AM 03/12/2019 08:02 AM 0.000 0.000 0.000 0.000 0.000 Not Reported Not Reported
03/22/2019 05:58 PM 51.08 43.70 35.24 61.88 29.84 54.0 Not Reported 4.70 S 8.28 S 8.72 S No 0.000 No Precipitation 03/12/2019 07:57 AM 03/12/2019 08:02 AM 0.000 0.000 0.000 0.000 0.000 Not Reported Not Reported
03/22/2019 06:12 PM 49.82 42.80 33.98 62.60 30.92 54.0 Not Reported 10.51 S 14.32 S 13.65 S No 0.000 No Precipitation 03/12/2019 07:57 AM 03/12/2019 08:02 AM 0.000 0.000 0.000 0.000 0.000 Not Reported Not Reported
03/22/2019 06:27 PM 47.66 43.34 38.12 62.60 30.92 70.0 Not Reported 6.93 S 7.16 S 14.32 S No 0.000 No Precipitation 03/22/2019 05:19 PM 03/22/2019 05:24 PM 0.004 0.004 0.004 0.004 0.004 Not Reported Not Reported
03/22/2019 06:43 PM 48.02 43.34 38.12 62.60 30.92 68.0 Not Reported 6.26 SE 7.16 S 8.95 S No 0.000 No Precipitation 03/22/2019 05:19 PM 03/22/2019 05:24 PM 0.004 0.004 0.004 0.004 0.004 Not Reported Not Reported
03/22/2019 06:57 PM 48.02 43.52 38.12 62.60 30.92 69.0 Not Reported 4.70 S 3.36 S 7.16 S No 0.000 No Precipitation 03/22/2019 05:19 PM 03/22/2019 05:24 PM 0.004 0.004 0.004 0.004 0.004 Not Reported Not Reported
03/22/2019 07:13 PM 47.66 42.98 37.76 62.60 30.92 67.0 Not Reported 5.14 S 5.59 S 6.93 S No 0.000 No Precipitation 03/22/2019 05:19 PM 03/22/2019 05:24 PM 0.004 0.004 0.004 0.004 0.004 Not Reported Not Reported
03/22/2019 07:27 PM 47.48 42.62 36.86 62.60 30.92 66.0 Not Reported 6.49 SE 6.04 S 9.17 S No 0.000 No Precipitation 03/22/2019 05:19 PM 03/22/2019 05:24 PM 0.000 0.004 0.004 0.004 0.004 Not Reported Not Reported
03/22/2019 07:42 PM 47.30 42.44 36.68 62.60 30.92 66.0 Not Reported 4.70 S 4.92 S 6.71 S No 0.000 No Precipitation 03/22/2019 05:19 PM 03/22/2019 05:24 PM 0.000 0.004 0.004 0.004 0.004 Not Reported Not Reported
03/22/2019 07:57 PM 47.12 42.44 37.22 62.60 30.92 68.0 Not Reported 6.93 S 6.04 SE 6.93 S No 0.000 No Precipitation 03/22/2019 05:19 PM 03/22/2019 05:24 PM 0.000 0.004 0.004 0.004 0.004 Not Reported Not Reported
03/22/2019 08:12 PM 46.76 42.08 36.50 62.60 30.92 67.0 Not Reported 4.03 SE 4.03 S 8.95 S No 0.000 No Precipitation 03/22/2019 05:19 PM 03/22/2019 05:24 PM 0.000 0.004 0.004 0.004 0.004 Not Reported Not Reported
03/22/2019 08:27 PM 46.22 41.72 36.50 62.60 30.92 68.0 Not Reported 3.58 SE 4.03 SE 6.93 SE No 0.000 No Precipitation 03/22/2019 05:19 PM 03/22/2019 05:24 PM 0.000 0.004 0.004 0.004 0.004 Not Reported Not Reported
03/22/2019 08:42 PM 45.32 41.36 36.86 62.60 30.92 71.0 Not Reported 3.80 E 4.47 SE 4.92 E No 0.000 No Precipitation 03/22/2019 05:19 PM 03/22/2019 05:24 PM 0.000 0.004 0.004 0.004 0.004 Not Reported Not Reported
03/22/2019 08:57 PM 45.14 41.18 36.50 62.60 30.92 71.0 Not Reported 3.80 SE 2.46 SE 6.04 SE No 0.000 No Precipitation 03/22/2019 05:19 PM 03/22/2019 05:24 PM 0.000 0.004 0.004 0.004 0.004 Not Reported Not Reported
03/22/2019 09:12 PM 44.42 40.64 36.14 62.60 30.92 72.0 Not Reported 0.45 NE 0.89 NE 1.57 E No 0.000 No Precipitation 03/22/2019 05:19 PM 03/22/2019 05:24 PM 0.000 0.004 0.004 0.004 0.004 Not Reported Not Reported
03/22/2019 09:27 PM 44.06 40.64 36.32 62.60 30.92 74.0 Not Reported 1.57 W 1.79 W 2.24 NW No 0.000 No Precipitation 03/22/2019 05:19 PM 03/22/2019 05:24 PM 0.000 0.000 0.004 0.004 0.004 Not Reported Not Reported
03/22/2019 09:42 PM 44.60 41.00 37.04 62.60 30.92 74.0 Not Reported 1.57 W 2.24 W 2.46 W No 0.000 No Precipitation 03/22/2019 05:19 PM 03/22/2019 05:24 PM 0.000 0.000 0.004 0.004 0.004 Not Reported Not Reported
03/22/2019 09:58 PM 44.78 41.18 37.04 62.60 30.92 74.0 Not Reported 2.91 NW 2.24 W 4.03 W No 0.000 No Precipitation 03/22/2019 05:19 PM 03/22/2019 05:24 PM 0.000 0.000 0.004 0.004 0.004 Not Reported Not Reported
03/22/2019 10:12 PM 44.60 41.00 37.04 62.60 30.92 74.0 Not Reported 2.68 W 2.91 W 3.80 W No 0.000 No Precipitation 03/22/2019 05:19 PM 03/22/2019 05:24 PM 0.000 0.000 0.004 0.004 0.004 Not Reported Not Reported
03/22/2019 10:27 PM 44.24 41.00 37.40 62.60 30.92 76.0 Not Reported 4.70 W 3.13 W 3.36 W No 0.000 No Precipitation 03/22/2019 05:19 PM 03/22/2019 05:24 PM 0.000 0.000 0.004 0.004 0.004 Not Reported Not Reported
03/22/2019 10:42 PM 44.96 41.54 37.58 62.60 30.92 75.0 Not Reported 2.46 NW 3.80 N 3.36 W No 0.000 No Precipitation 03/22/2019 05:19 PM 03/22/2019 05:24 PM 0.000 0.000 0.004 0.004 0.004 Not Reported Not Reported
03/22/2019 10:57 PM 44.60 41.54 38.12 62.60 30.92 77.0 Not Reported 1.79 NW 2.46 NW 4.03 N No 0.000 No Precipitation 03/22/2019 05:19 PM 03/22/2019 05:24 PM 0.000 0.000 0.004 0.004 0.004 Not Reported Not Reported
03/22/2019 11:12 PM 44.78 41.54 37.76 62.60 30.92 76.0 Not Reported 4.03 W 4.25 W 5.37 NW No 0.000 No Precipitation 03/22/2019 05:19 PM 03/22/2019 05:24 PM 0.000 0.000 0.004 0.004 0.004 Not Reported Not Reported
03/22/2019 11:27 PM 44.06 41.00 37.58 62.60 30.92 77.0 Not Reported 3.58 W 1.79 SW 4.70 W No 0.000 No Precipitation 03/22/2019 05:19 PM 03/22/2019 05:24 PM 0.000 0.000 0.004 0.004 0.004 Not Reported Not Reported
03/22/2019 11:42 PM 43.88 41.00 37.76 62.60 30.92 79.0 Not Reported 0.67 E 0.00 SE 1.34 E No 0.000 No Precipitation 03/22/2019 05:19 PM 03/22/2019 05:24 PM 0.000 0.000 0.004 0.004 0.004 Not Reported Not Reported
03/22/2019 11:57 PM 43.70 40.82 37.76 62.60 30.92 79.0 Not Reported 2.01 W 1.34 W 1.34 W No 0.000 No Precipitation 03/22/2019 05:19 PM 03/22/2019 05:24 PM 0.000 0.000 0.004 0.004 0.004 Not Reported Not Reported